sensor_id;sensor_type;location;lat;lon;timestamp;pressure;altitude;pressure_sealevel;temperature;humidity
73171;BME280;61381;50.118;19.962;2022-12-18T00:04:29;99931.38;;;-5.51;100.00
73171;BME280;61381;50.118;19.962;2022-12-18T00:09:30;99937.69;;;-5.53;100.00
73171;BME280;61381;50.118;19.962;2022-12-18T00:14:33;99930.09;;;-5.47;100.00
73171;BME280;61381;50.118;19.962;2022-12-18T00:19:34;99939.84;;;-5.49;100.00
73171;BME280;61381;50.118;19.962;2022-12-18T00:24:34;99954.66;;;-5.40;100.00
73171;BME280;61381;50.118;19.962;2022-12-18T00:29:37;99964.59;;;-5.43;100.00
73171;BME280;61381;50.118;19.962;2022-12-18T00:34:38;99955.97;;;-5.53;100.00
73171;BME280;61381;50.118;19.962;2022-12-18T00:39:38;99961.91;;;-5.61;100.00
73171;BME280;61381;50.118;19.962;2022-12-18T00:44:41;99972.38;;;-5.71;100.00
73171;BME280;61381;50.118;19.962;2022-12-18T00:49:42;99970.06;;;-5.84;100.00
73171;BME280;61381;50.118;19.962;2022-12-18T00:54:43;99987.13;;;-5.89;100.00
73171;BME280;61381;50.118;19.962;2022-12-18T00:59:45;99992.72;;;-5.94;100.00
73171;BME280;61381;50.118;19.962;2022-12-18T01:04:46;99997.13;;;-5.95;100.00
73171;BME280;61381;50.118;19.962;2022-12-18T01:09:47;100006.19;;;-5.89;100.00
73171;BME280;61381;50.118;19.962;2022-12-18T01:14:49;100015.25;;;-5.83;100.00
73171;BME280;61381;50.118;19.962;2022-12-18T01:19:50;100016.22;;;-5.84;100.00
73171;BME280;61381;50.118;19.962;2022-12-18T01:24:51;100020.31;;;-5.72;100.00
73171;BME280;61381;50.118;19.962;2022-12-18T01:29:53;100027.03;;;-5.79;100.00
73171;BME280;61381;50.118;19.962;2022-12-18T01:34:54;100032.81;;;-5.76;100.00
73171;BME280;61381;50.118;19.962;2022-12-18T01:39:55;100026.75;;;-5.76;100.00
73171;BME280;61381;50.118;19.962;2022-12-18T01:45:04;100025.66;;;-5.74;100.00
73171;BME280;61381;50.118;19.962;2022-12-18T01:50:09;100031.97;;;-5.66;100.00
73171;BME280;61381;50.118;19.962;2022-12-18T01:55:12;100046.78;;;-5.67;100.00
73171;BME280;61381;50.118;19.962;2022-12-18T02:00:17;100056.81;;;-5.62;100.00
73171;BME280;61381;50.118;19.962;2022-12-18T02:05:25;100054.47;;;-5.65;100.00
73171;BME280;61381;50.118;19.962;2022-12-18T02:10:33;100054.06;;;-5.61;100.00
73171;BME280;61381;50.118;19.962;2022-12-18T02:15:41;100063.97;;;-5.64;100.00
73171;BME280;61381;50.118;19.962;2022-12-18T02:20:46;100079.22;;;-5.60;100.00
73171;BME280;61381;50.118;19.962;2022-12-18T02:26:02;100089.38;;;-5.57;100.00
73171;BME280;61381;50.118;19.962;2022-12-18T02:31:10;100088.13;;;-5.52;100.00
73171;BME280;61381;50.118;19.962;2022-12-18T02:36:12;100097.47;;;-5.60;100.00
73171;BME280;61381;50.118;19.962;2022-12-18T02:41:14;100100.75;;;-5.58;100.00
73171;BME280;61381;50.118;19.962;2022-12-18T02:46:27;100096.91;;;-5.53;100.00
73171;BME280;61381;50.118;19.962;2022-12-18T02:51:31;100109.03;;;-5.52;100.00
73171;BME280;61381;50.118;19.962;2022-12-18T02:56:38;100111.22;;;-5.48;100.00
73171;BME280;61381;50.118;19.962;2022-12-18T03:01:50;100119.72;;;-5.46;100.00
73171;BME280;61381;50.118;19.962;2022-12-18T03:06:56;100116.44;;;-5.48;100.00
73171;BME280;61381;50.118;19.962;2022-12-18T03:12:04;100126.59;;;-5.45;100.00
73171;BME280;61381;50.118;19.962;2022-12-18T03:17:07;100138.16;;;-5.57;100.00
73171;BME280;61381;50.118;19.962;2022-12-18T03:22:10;100140.22;;;-5.51;100.00
73171;BME280;61381;50.118;19.962;2022-12-18T03:27:15;100138.25;;;-5.39;100.00
73171;BME280;61381;50.118;19.962;2022-12-18T03:32:23;100139.22;;;-5.40;100.00
73171;BME280;61381;50.118;19.962;2022-12-18T03:37:25;100157.91;;;-5.55;100.00
73171;BME280;61381;50.118;19.962;2022-12-18T03:42:32;100164.25;;;-5.57;100.00
73171;BME280;61381;50.118;19.962;2022-12-18T03:47:39;100167.69;;;-5.57;100.00
73171;BME280;61381;50.118;19.962;2022-12-18T03:52:45;100169.59;;;-5.49;100.00
73171;BME280;61381;50.118;19.962;2022-12-18T03:57:51;100176.91;;;-5.52;100.00
73171;BME280;61381;50.118;19.962;2022-12-18T04:02:55;100181.97;;;-5.41;100.00
73171;BME280;61381;50.118;19.962;2022-12-18T04:07:57;100181.13;;;-5.51;100.00
73171;BME280;61381;50.118;19.962;2022-12-18T04:12:59;100189.69;;;-5.49;100.00
73171;BME280;61381;50.118;19.962;2022-12-18T04:18:00;100191.03;;;-5.65;100.00
73171;BME280;61381;50.118;19.962;2022-12-18T04:23:02;100195.03;;;-5.51;100.00
73171;BME280;61381;50.118;19.962;2022-12-18T04:28:04;100203.94;;;-5.44;100.00
73171;BME280;61381;50.118;19.962;2022-12-18T04:33:08;100198.34;;;-5.59;100.00
73171;BME280;61381;50.118;19.962;2022-12-18T04:38:09;100208.63;;;-5.57;100.00
73171;BME280;61381;50.118;19.962;2022-12-18T04:43:12;100221.25;;;-5.62;100.00
73171;BME280;61381;50.118;19.962;2022-12-18T04:48:12;100223.19;;;-5.55;100.00
73171;BME280;61381;50.118;19.962;2022-12-18T04:53:13;100225.53;;;-5.61;100.00
73171;BME280;61381;50.118;19.962;2022-12-18T04:58:16;100233.91;;;-5.58;100.00
73171;BME280;61381;50.118;19.962;2022-12-18T05:03:17;100238.44;;;-5.69;100.00
73171;BME280;61381;50.118;19.962;2022-12-18T05:08:18;100253.38;;;-5.71;100.00
73171;BME280;61381;50.118;19.962;2022-12-18T05:13:20;100253.78;;;-5.76;100.00
73171;BME280;61381;50.118;19.962;2022-12-18T05:18:21;100259.44;;;-5.71;100.00
73171;BME280;61381;50.118;19.962;2022-12-18T05:23:23;100263.00;;;-5.62;100.00
73171;BME280;61381;50.118;19.962;2022-12-18T05:28:27;100261.66;;;-5.66;100.00
73171;BME280;61381;50.118;19.962;2022-12-18T05:33:30;100264.22;;;-5.76;100.00
73171;BME280;61381;50.118;19.962;2022-12-18T05:38:33;100267.97;;;-5.69;100.00
73171;BME280;61381;50.118;19.962;2022-12-18T05:43:36;100268.63;;;-5.67;100.00
73171;BME280;61381;50.118;19.962;2022-12-18T05:48:38;100276.50;;;-5.57;100.00
73171;BME280;61381;50.118;19.962;2022-12-18T05:53:39;100280.75;;;-5.66;100.00
73171;BME280;61381;50.118;19.962;2022-12-18T05:58:41;100292.72;;;-5.63;100.00
73171;BME280;61381;50.118;19.962;2022-12-18T06:03:43;100288.03;;;-5.69;100.00
73171;BME280;61381;50.118;19.962;2022-12-18T06:08:44;100308.91;;;-5.69;100.00
73171;BME280;61381;50.118;19.962;2022-12-18T06:13:49;100311.66;;;-5.61;100.00
73171;BME280;61381;50.118;19.962;2022-12-18T06:18:50;100323.31;;;-5.65;100.00
73171;BME280;61381;50.118;19.962;2022-12-18T06:23:51;100325.84;;;-5.54;100.00
73171;BME280;61381;50.118;19.962;2022-12-18T06:28:53;100329.81;;;-5.60;100.00
73171;BME280;61381;50.118;19.962;2022-12-18T06:33:54;100329.66;;;-5.68;100.00
73171;BME280;61381;50.118;19.962;2022-12-18T06:38:56;100335.94;;;-5.70;100.00
73171;BME280;61381;50.118;19.962;2022-12-18T06:43:58;100343.25;;;-5.64;100.00
73171;BME280;61381;50.118;19.962;2022-12-18T06:48:59;100339.28;;;-5.59;100.00
73171;BME280;61381;50.118;19.962;2022-12-18T06:54:00;100355.66;;;-5.47;100.00
73171;BME280;61381;50.118;19.962;2022-12-18T06:59:03;100370.25;;;-5.44;100.00
73171;BME280;61381;50.118;19.962;2022-12-18T07:04:04;100379.16;;;-5.47;100.00
73171;BME280;61381;50.118;19.962;2022-12-18T07:09:05;100379.72;;;-5.43;100.00
73171;BME280;61381;50.118;19.962;2022-12-18T07:14:07;100383.28;;;-5.44;100.00
73171;BME280;61381;50.118;19.962;2022-12-18T07:19:08;100387.28;;;-5.40;100.00
73171;BME280;61381;50.118;19.962;2022-12-18T07:24:09;100400.16;;;-5.58;100.00
73171;BME280;61381;50.118;19.962;2022-12-18T07:29:11;100398.81;;;-5.52;100.00
73171;BME280;61381;50.118;19.962;2022-12-18T07:34:13;100415.44;;;-5.44;100.00
73171;BME280;61381;50.118;19.962;2022-12-18T07:39:14;100427.44;;;-5.31;100.00
73171;BME280;61381;50.118;19.962;2022-12-18T07:44:16;100432.03;;;-5.24;100.00
73171;BME280;61381;50.118;19.962;2022-12-18T07:49:17;100441.94;;;-5.08;100.00
73171;BME280;61381;50.118;19.962;2022-12-18T07:54:18;100443.06;;;-5.00;100.00
73171;BME280;61381;50.118;19.962;2022-12-18T07:59:21;100444.31;;;-4.95;100.00
73171;BME280;61381;50.118;19.962;2022-12-18T08:04:21;100457.44;;;-4.56;100.00
73171;BME280;61381;50.118;19.962;2022-12-18T08:09:22;100445.88;;;-4.63;100.00
73171;BME280;61381;50.118;19.962;2022-12-18T08:14:25;100451.91;;;-4.62;100.00
73171;BME280;61381;50.118;19.962;2022-12-18T08:19:26;100463.78;;;-4.39;100.00
73171;BME280;61381;50.118;19.962;2022-12-18T08:24:26;100470.22;;;-4.43;100.00
73171;BME280;61381;50.118;19.962;2022-12-18T08:29:29;100475.88;;;-4.28;100.00
73171;BME280;61381;50.118;19.962;2022-12-18T08:34:30;100471.22;;;-4.34;100.00
73171;BME280;61381;50.118;19.962;2022-12-18T08:39:31;100477.81;;;-4.20;100.00
73171;BME280;61381;50.118;19.962;2022-12-18T08:44:33;100482.63;;;-3.96;100.00
73171;BME280;61381;50.118;19.962;2022-12-18T08:49:35;100478.69;;;-3.72;100.00
73171;BME280;61381;50.118;19.962;2022-12-18T08:54:36;100490.59;;;-3.88;99.90
73171;BME280;61381;50.118;19.962;2022-12-18T08:59:38;100499.25;;;-3.78;100.00
73171;BME280;61381;50.118;19.962;2022-12-18T09:04:39;100496.84;;;-3.51;99.40
73171;BME280;61381;50.118;19.962;2022-12-18T09:09:40;100496.78;;;-3.32;97.29
73171;BME280;61381;50.118;19.962;2022-12-18T09:14:42;100500.28;;;-3.51;97.24
73171;BME280;61381;50.118;19.962;2022-12-18T09:19:43;100504.69;;;-3.51;97.51
73171;BME280;61381;50.118;19.962;2022-12-18T09:24:44;100489.13;;;-3.15;97.59
73171;BME280;61381;50.118;19.962;2022-12-18T09:29:47;100499.78;;;-3.17;94.31
73171;BME280;61381;50.118;19.962;2022-12-18T09:34:48;100504.03;;;-3.16;98.98
73171;BME280;61381;50.118;19.962;2022-12-18T09:39:49;100498.41;;;-2.93;95.85
73171;BME280;61381;50.118;19.962;2022-12-18T09:44:53;100506.59;;;-2.78;92.68
73171;BME280;61381;50.118;19.962;2022-12-18T09:49:56;100511.75;;;-2.87;94.31
73171;BME280;61381;50.118;19.962;2022-12-18T09:55:03;100512.31;;;-2.93;93.65
73171;BME280;61381;50.118;19.962;2022-12-18T10:00:17;100512.78;;;-3.35;95.10
73171;BME280;61381;50.118;19.962;2022-12-18T10:05:25;100519.75;;;-3.63;95.23
73171;BME280;61381;50.118;19.962;2022-12-18T10:10:36;100521.69;;;-3.65;95.50
73171;BME280;61381;50.118;19.962;2022-12-18T10:15:49;100513.81;;;-3.55;96.96
73171;BME280;61381;50.118;19.962;2022-12-18T10:20:54;100519.25;;;-3.77;96.23
73171;BME280;61381;50.118;19.962;2022-12-18T10:26:02;100527.22;;;-3.88;97.05
73171;BME280;61381;50.118;19.962;2022-12-18T10:31:06;100518.97;;;-3.93;97.07
73171;BME280;61381;50.118;19.962;2022-12-18T10:36:07;100503.13;;;-3.91;96.95
73171;BME280;61381;50.118;19.962;2022-12-18T10:41:24;100505.75;;;-4.11;97.80
73171;BME280;61381;50.118;19.962;2022-12-18T10:46:27;100507.56;;;-3.92;98.05
73171;BME280;61381;50.118;19.962;2022-12-18T10:51:29;100491.78;;;-3.72;95.44
73171;BME280;61381;50.118;19.962;2022-12-18T10:56:33;100498.22;;;-3.57;95.79
73171;BME280;61381;50.118;19.962;2022-12-18T11:01:47;100494.09;;;-3.50;94.16
73171;BME280;61381;50.118;19.962;2022-12-18T11:06:57;100488.56;;;-2.63;91.36
73171;BME280;61381;50.118;19.962;2022-12-18T11:12:01;100491.13;;;-2.54;89.00
73171;BME280;61381;50.118;19.962;2022-12-18T11:17:03;100480.84;;;-2.29;92.21
73171;BME280;61381;50.118;19.962;2022-12-18T11:22:19;100475.72;;;-2.66;86.99
73171;BME280;61381;50.118;19.962;2022-12-18T11:27:21;100468.09;;;-2.78;87.25
73171;BME280;61381;50.118;19.962;2022-12-18T11:32:32;100466.84;;;-3.01;88.66
73171;BME280;61381;50.118;19.962;2022-12-18T11:37:36;100473.25;;;-3.14;88.94
73171;BME280;61381;50.118;19.962;2022-12-18T11:42:42;100476.75;;;-3.61;90.68
73171;BME280;61381;50.118;19.962;2022-12-18T11:47:52;100481.31;;;-3.63;91.82
73171;BME280;61381;50.118;19.962;2022-12-18T11:52:55;100491.44;;;-4.07;92.94
73171;BME280;61381;50.118;19.962;2022-12-18T11:58:02;100482.03;;;-4.00;94.80
73171;BME280;61381;50.118;19.962;2022-12-18T12:03:27;100486.63;;;-3.92;93.66
73171;BME280;61381;50.118;19.962;2022-12-18T12:08:44;100478.34;;;-4.07;93.99
73171;BME280;61381;50.118;19.962;2022-12-18T12:14:07;100481.78;;;-3.97;94.41
73171;BME280;61381;50.118;19.962;2022-12-18T12:19:24;100480.94;;;-3.97;95.65
73171;BME280;61381;50.118;19.962;2022-12-18T12:24:36;100474.91;;;-3.98;93.88
73171;BME280;61381;50.118;19.962;2022-12-18T12:29:49;100485.63;;;-4.10;94.31
73171;BME280;61381;50.118;19.962;2022-12-18T12:35:08;100489.50;;;-3.95;93.04
73171;BME280;61381;50.118;19.962;2022-12-18T12:40:14;100509.22;;;-4.01;93.28
73171;BME280;61381;50.118;19.962;2022-12-18T12:45:22;100510.56;;;-4.26;93.90
73171;BME280;61381;50.118;19.962;2022-12-18T12:50:28;100516.25;;;-4.21;94.10
73171;BME280;61381;50.118;19.962;2022-12-18T12:55:34;100530.16;;;-4.01;93.72
73171;BME280;61381;50.118;19.962;2022-12-18T13:00:41;100539.78;;;-3.91;93.59
73171;BME280;61381;50.118;19.962;2022-12-18T13:05:50;100539.22;;;-4.24;92.94
73171;BME280;61381;50.118;19.962;2022-12-18T13:10:54;100543.66;;;-4.05;95.79
73171;BME280;61381;50.118;19.962;2022-12-18T13:16:04;100539.34;;;-3.97;93.92
73171;BME280;61381;50.118;19.962;2022-12-18T13:21:17;100539.78;;;-4.21;94.10
73171;BME280;61381;50.118;19.962;2022-12-18T13:26:29;100548.19;;;-4.27;95.30
73171;BME280;61381;50.118;19.962;2022-12-18T13:37:39;100553.88;;;-4.62;98.05
73171;BME280;61381;50.118;19.962;2022-12-18T13:42:41;100554.41;;;-4.78;100.00
73171;BME280;61381;50.118;19.962;2022-12-18T13:47:43;100571.28;;;-5.23;100.00
73171;BME280;61381;50.118;19.962;2022-12-18T13:52:45;100566.63;;;-5.41;100.00
73171;BME280;61381;50.118;19.962;2022-12-18T13:57:46;100572.97;;;-5.43;100.00
73171;BME280;61381;50.118;19.962;2022-12-18T14:02:47;100568.25;;;-5.70;100.00
73171;BME280;61381;50.118;19.962;2022-12-18T14:07:50;100583.19;;;-5.94;100.00
73171;BME280;61381;50.118;19.962;2022-12-18T14:12:53;100582.22;;;-6.14;100.00
73171;BME280;61381;50.118;19.962;2022-12-18T14:17:54;100586.19;;;-6.31;100.00
73171;BME280;61381;50.118;19.962;2022-12-18T14:22:58;100588.25;;;-6.57;100.00
73171;BME280;61381;50.118;19.962;2022-12-18T14:28:12;100588.97;;;-6.77;100.00
73171;BME280;61381;50.118;19.962;2022-12-18T14:33:16;100582.00;;;-7.00;100.00
73171;BME280;61381;50.118;19.962;2022-12-18T14:38:22;100597.97;;;-7.15;100.00
73171;BME280;61381;50.118;19.962;2022-12-18T14:43:23;100603.50;;;-7.31;100.00
73171;BME280;61381;50.118;19.962;2022-12-18T14:48:35;100605.00;;;-7.51;100.00
73171;BME280;61381;50.118;19.962;2022-12-18T14:53:40;100601.75;;;-7.78;100.00
73171;BME280;61381;50.118;19.962;2022-12-18T14:58:47;100612.09;;;-7.89;100.00
73171;BME280;61381;50.118;19.962;2022-12-18T15:03:49;100600.75;;;-8.12;100.00
73171;BME280;61381;50.118;19.962;2022-12-18T15:08:52;100601.41;;;-8.21;100.00
73171;BME280;61381;50.118;19.962;2022-12-18T15:13:53;100611.78;;;-8.33;100.00
73171;BME280;61381;50.118;19.962;2022-12-18T15:18:55;100610.19;;;-8.47;100.00
73171;BME280;61381;50.118;19.962;2022-12-18T15:23:57;100611.22;;;-8.49;100.00
73171;BME280;61381;50.118;19.962;2022-12-18T15:28:58;100605.53;;;-8.54;100.00
73171;BME280;61381;50.118;19.962;2022-12-18T15:34:13;100611.44;;;-8.65;100.00
73171;BME280;61381;50.118;19.962;2022-12-18T15:39:15;100629.06;;;-8.82;100.00
73171;BME280;61381;50.118;19.962;2022-12-18T15:44:21;100635.16;;;-8.70;100.00
73171;BME280;61381;50.118;19.962;2022-12-18T15:49:22;100636.63;;;-8.91;100.00
73171;BME280;61381;50.118;19.962;2022-12-18T15:54:25;100632.81;;;-8.99;100.00
73171;BME280;61381;50.118;19.962;2022-12-18T15:59:26;100639.75;;;-8.99;100.00
73171;BME280;61381;50.118;19.962;2022-12-18T16:04:27;100635.19;;;-9.08;100.00
73171;BME280;61381;50.118;19.962;2022-12-18T16:09:30;100646.28;;;-9.19;100.00
73171;BME280;61381;50.118;19.962;2022-12-18T16:14:31;100653.56;;;-9.24;100.00
73171;BME280;61381;50.118;19.962;2022-12-18T16:19:32;100663.19;;;-9.26;100.00
73171;BME280;61381;50.118;19.962;2022-12-18T16:24:34;100648.88;;;-9.32;100.00
73171;BME280;61381;50.118;19.962;2022-12-18T16:29:35;100669.75;;;-9.21;100.00
73171;BME280;61381;50.118;19.962;2022-12-18T16:34:36;100657.31;;;-9.16;100.00
73171;BME280;61381;50.118;19.962;2022-12-18T16:39:38;100671.69;;;-9.37;100.00
73171;BME280;61381;50.118;19.962;2022-12-18T16:44:39;100676.25;;;-9.54;100.00
73171;BME280;61381;50.118;19.962;2022-12-18T16:49:40;100679.34;;;-9.48;100.00
73171;BME280;61381;50.118;19.962;2022-12-18T16:54:43;100678.44;;;-9.47;100.00
73171;BME280;61381;50.118;19.962;2022-12-18T16:59:44;100685.22;;;-9.19;100.00
73171;BME280;61381;50.118;19.962;2022-12-18T17:04:45;100681.66;;;-9.31;100.00
73171;BME280;61381;50.118;19.962;2022-12-18T17:09:47;100684.13;;;-9.42;100.00
73171;BME280;61381;50.118;19.962;2022-12-18T17:14:48;100690.34;;;-9.45;100.00
73171;BME280;61381;50.118;19.962;2022-12-18T17:19:50;100673.53;;;-9.52;100.00
73171;BME280;61381;50.118;19.962;2022-12-18T17:24:53;100672.28;;;-9.46;100.00
73171;BME280;61381;50.118;19.962;2022-12-18T17:29:54;100659.63;;;-9.51;100.00
73171;BME280;61381;50.118;19.962;2022-12-18T17:34:55;100663.28;;;-9.54;100.00
73171;BME280;61381;50.118;19.962;2022-12-18T17:39:57;100648.22;;;-9.36;100.00
73171;BME280;61381;50.118;19.962;2022-12-18T17:44:58;100648.53;;;-9.53;100.00
73171;BME280;61381;50.118;19.962;2022-12-18T17:49:59;100646.53;;;-9.62;100.00
73171;BME280;61381;50.118;19.962;2022-12-18T17:55:01;100642.06;;;-9.73;100.00
73171;BME280;61381;50.118;19.962;2022-12-18T18:00:03;100636.56;;;-9.69;100.00
73171;BME280;61381;50.118;19.962;2022-12-18T18:05:05;100639.47;;;-9.73;100.00
73171;BME280;61381;50.118;19.962;2022-12-18T18:10:08;100646.63;;;-9.77;100.00
73171;BME280;61381;50.118;19.962;2022-12-18T18:15:09;100634.16;;;-9.72;100.00
73171;BME280;61381;50.118;19.962;2022-12-18T18:20:10;100644.53;;;-9.72;100.00
73171;BME280;61381;50.118;19.962;2022-12-18T18:25:13;100665.31;;;-9.59;100.00
73171;BME280;61381;50.118;19.962;2022-12-18T18:30:13;100662.56;;;-9.43;100.00
73171;BME280;61381;50.118;19.962;2022-12-18T18:35:14;100680.22;;;-9.22;100.00
73171;BME280;61381;50.118;19.962;2022-12-18T18:40:17;100675.16;;;-8.98;100.00
73171;BME280;61381;50.118;19.962;2022-12-18T18:45:17;100674.44;;;-9.00;100.00
73171;BME280;61381;50.118;19.962;2022-12-18T18:50:18;100668.59;;;-9.04;100.00
73171;BME280;61381;50.118;19.962;2022-12-18T18:55:21;100673.50;;;-9.12;100.00
73171;BME280;61381;50.118;19.962;2022-12-18T19:00:21;100669.13;;;-9.24;100.00
73171;BME280;61381;50.118;19.962;2022-12-18T19:05:22;100662.78;;;-9.33;100.00
73171;BME280;61381;50.118;19.962;2022-12-18T19:10:25;100667.19;;;-9.48;100.00
73171;BME280;61381;50.118;19.962;2022-12-18T19:15:26;100663.88;;;-9.63;100.00
73171;BME280;61381;50.118;19.962;2022-12-18T19:20:26;100665.28;;;-9.72;100.00
73171;BME280;61381;50.118;19.962;2022-12-18T19:25:29;100681.34;;;-9.79;100.00
73171;BME280;61381;50.118;19.962;2022-12-18T19:30:30;100678.69;;;-9.92;100.00
73171;BME280;61381;50.118;19.962;2022-12-18T19:35:31;100679.81;;;-9.96;100.00
73171;BME280;61381;50.118;19.962;2022-12-18T19:40:33;100684.91;;;-9.95;100.00
73171;BME280;61381;50.118;19.962;2022-12-18T19:45:34;100693.97;;;-9.88;100.00
73171;BME280;61381;50.118;19.962;2022-12-18T19:50:39;100694.53;;;-9.97;100.00
73171;BME280;61381;50.118;19.962;2022-12-18T19:55:42;100707.03;;;-10.04;100.00
73171;BME280;61381;50.118;19.962;2022-12-18T20:00:43;100711.97;;;-10.13;100.00
73171;BME280;61381;50.118;19.962;2022-12-18T20:05:44;100710.94;;;-10.11;100.00
73171;BME280;61381;50.118;19.962;2022-12-18T20:10:46;100707.78;;;-10.01;100.00
73171;BME280;61381;50.118;19.962;2022-12-18T20:15:47;100691.41;;;-10.02;100.00
73171;BME280;61381;50.118;19.962;2022-12-18T20:20:48;100700.84;;;-10.01;100.00
73171;BME280;61381;50.118;19.962;2022-12-18T20:25:52;100699.75;;;-10.11;100.00
73171;BME280;61381;50.118;19.962;2022-12-18T20:30:58;100715.66;;;-10.03;100.00
73171;BME280;61381;50.118;19.962;2022-12-18T20:36:03;100712.84;;;-10.00;100.00
73171;BME280;61381;50.118;19.962;2022-12-18T20:41:08;100712.75;;;-9.98;100.00
73171;BME280;61381;50.118;19.962;2022-12-18T20:46:10;100705.00;;;-9.98;100.00
73171;BME280;61381;50.118;19.962;2022-12-18T20:51:13;100690.88;;;-10.07;100.00
73171;BME280;61381;50.118;19.962;2022-12-18T20:56:17;100686.38;;;-10.18;100.00
73171;BME280;61381;50.118;19.962;2022-12-18T21:01:19;100673.31;;;-10.31;100.00
73171;BME280;61381;50.118;19.962;2022-12-18T21:06:22;100669.41;;;-10.36;100.00
73171;BME280;61381;50.118;19.962;2022-12-18T21:11:29;100664.69;;;-10.44;100.00
73171;BME280;61381;50.118;19.962;2022-12-18T21:16:31;100664.50;;;-10.55;100.00
73171;BME280;61381;50.118;19.962;2022-12-18T21:21:32;100682.28;;;-10.64;100.00
73171;BME280;61381;50.118;19.962;2022-12-18T21:26:35;100666.94;;;-10.67;100.00
73171;BME280;61381;50.118;19.962;2022-12-18T21:31:37;100657.31;;;-10.79;100.00
73171;BME280;61381;50.118;19.962;2022-12-18T21:36:38;100653.59;;;-10.75;100.00
73171;BME280;61381;50.118;19.962;2022-12-18T21:41:41;100633.84;;;-10.76;100.00
73171;BME280;61381;50.118;19.962;2022-12-18T21:46:44;100648.16;;;-10.85;100.00
73171;BME280;61381;50.118;19.962;2022-12-18T21:51:47;100641.13;;;-10.83;100.00
73171;BME280;61381;50.118;19.962;2022-12-18T21:56:52;100637.16;;;-10.88;100.00
73171;BME280;61381;50.118;19.962;2022-12-18T22:01:55;100647.78;;;-10.79;100.00
73171;BME280;61381;50.118;19.962;2022-12-18T22:06:56;100631.72;;;-10.84;100.00
73171;BME280;61381;50.118;19.962;2022-12-18T22:11:59;100643.81;;;-10.84;100.00
73171;BME280;61381;50.118;19.962;2022-12-18T22:17:00;100648.97;;;-10.84;100.00
73171;BME280;61381;50.118;19.962;2022-12-18T22:22:01;100645.22;;;-10.93;100.00
73171;BME280;61381;50.118;19.962;2022-12-18T22:27:03;100644.28;;;-10.92;100.00
73171;BME280;61381;50.118;19.962;2022-12-18T22:32:06;100639.75;;;-10.88;100.00
73171;BME280;61381;50.118;19.962;2022-12-18T22:37:08;100634.88;;;-10.93;100.00
73171;BME280;61381;50.118;19.962;2022-12-18T22:42:11;100629.78;;;-10.95;100.00
73171;BME280;61381;50.118;19.962;2022-12-18T22:47:12;100623.41;;;-11.03;100.00
73171;BME280;61381;50.118;19.962;2022-12-18T22:52:13;100630.44;;;-11.05;100.00
73171;BME280;61381;50.118;19.962;2022-12-18T22:57:15;100616.91;;;-11.10;100.00
73171;BME280;61381;50.118;19.962;2022-12-18T23:02:16;100619.03;;;-11.03;100.00
73171;BME280;61381;50.118;19.962;2022-12-18T23:07:18;100617.84;;;-10.97;100.00
73171;BME280;61381;50.118;19.962;2022-12-18T23:12:20;100617.94;;;-10.99;100.00
73171;BME280;61381;50.118;19.962;2022-12-18T23:17:21;100621.16;;;-10.95;100.00
73171;BME280;61381;50.118;19.962;2022-12-18T23:22:23;100617.50;;;-11.05;100.00
73171;BME280;61381;50.118;19.962;2022-12-18T23:27:25;100626.53;;;-10.98;100.00
73171;BME280;61381;50.118;19.962;2022-12-18T23:32:26;100628.84;;;-11.08;100.00
73171;BME280;61381;50.118;19.962;2022-12-18T23:37:27;100628.03;;;-11.08;100.00
73171;BME280;61381;50.118;19.962;2022-12-18T23:42:29;100623.84;;;-11.11;100.00
73171;BME280;61381;50.118;19.962;2022-12-18T23:47:30;100619.69;;;-11.14;100.00
73171;BME280;61381;50.118;19.962;2022-12-18T23:52:31;100625.72;;;-11.13;100.00
73171;BME280;61381;50.118;19.962;2022-12-18T23:57:34;100614.69;;;-11.17;100.00
